sensor_id;sensor_type;location;lat;lon;timestamp;P1;durP1;ratioP1;P2;durP2;ratioP2
60588;SDS011;46421;48.610;9.334;2023-03-01T00:01:03;13.02;;;5.65;;
60588;SDS011;46421;48.610;9.334;2023-03-01T00:03:30;13.18;;;5.07;;
60588;SDS011;46421;48.610;9.334;2023-03-01T00:05:55;10.68;;;4.75;;
60588;SDS011;46421;48.610;9.334;2023-03-01T00:08:21;12.83;;;5.43;;
60588;SDS011;46421;48.610;9.334;2023-03-01T00:10:46;13.90;;;5.28;;
60588;SDS011;46421;48.610;9.334;2023-03-01T00:13:11;15.47;;;5.83;;
60588;SDS011;46421;48.610;9.334;2023-03-01T00:15:40;10.07;;;4.57;;
60588;SDS011;46421;48.610;9.334;2023-03-01T00:18:06;11.13;;;4.60;;
60588;SDS011;46421;48.610;9.334;2023-03-01T00:20:33;14.10;;;4.70;;
60588;SDS011;46421;48.610;9.334;2023-03-01T00:22:59;12.52;;;4.85;;
60588;SDS011;46421;48.610;9.334;2023-03-01T00:25:24;11.02;;;4.72;;
60588;SDS011;46421;48.610;9.334;2023-03-01T00:27:50;11.73;;;4.53;;
60588;SDS011;46421;48.610;9.334;2023-03-01T00:30:18;13.32;;;5.13;;
60588;SDS011;46421;48.610;9.334;2023-03-01T00:32:43;14.85;;;5.35;;
60588;SDS011;46421;48.610;9.334;2023-03-01T00:35:08;11.17;;;4.83;;
60588;SDS011;46421;48.610;9.334;2023-03-01T00:37:34;12.55;;;4.55;;
60588;SDS011;46421;48.610;9.334;2023-03-01T00:39:59;14.00;;;5.65;;
60588;SDS011;46421;48.610;9.334;2023-03-01T00:42:25;14.37;;;5.93;;
60588;SDS011;46421;48.610;9.334;2023-03-01T00:44:50;13.10;;;5.67;;
60588;SDS011;46421;48.610;9.334;2023-03-01T00:47:15;13.20;;;5.05;;
60588;SDS011;46421;48.610;9.334;2023-03-01T00:49:41;10.95;;;4.57;;
60588;SDS011;46421;48.610;9.334;2023-03-01T00:52:06;16.33;;;4.97;;
60588;SDS011;46421;48.610;9.334;2023-03-01T00:54:31;11.77;;;4.77;;
60588;SDS011;46421;48.610;9.334;2023-03-01T00:56:57;9.93;;;4.68;;
60588;SDS011;46421;48.610;9.334;2023-03-01T00:59:22;10.97;;;4.97;;
60588;SDS011;46421;48.610;9.334;2023-03-01T01:01:48;10.77;;;4.50;;
60588;SDS011;46421;48.610;9.334;2023-03-01T01:04:13;13.15;;;4.90;;
60588;SDS011;46421;48.610;9.334;2023-03-01T01:06:39;12.60;;;5.43;;
60588;SDS011;46421;48.610;9.334;2023-03-01T01:09:08;14.35;;;5.18;;
60588;SDS011;46421;48.610;9.334;2023-03-01T01:11:41;11.63;;;4.95;;
60588;SDS011;46421;48.610;9.334;2023-03-01T01:14:07;10.20;;;4.18;;
60588;SDS011;46421;48.610;9.334;2023-03-01T01:16:32;11.87;;;5.07;;
60588;SDS011;46421;48.610;9.334;2023-03-01T01:18:58;11.32;;;4.22;;
60588;SDS011;46421;48.610;9.334;2023-03-01T01:21:24;13.83;;;5.43;;
60588;SDS011;46421;48.610;9.334;2023-03-01T01:23:50;14.70;;;5.45;;
60588;SDS011;46421;48.610;9.334;2023-03-01T01:26:17;14.02;;;5.13;;
60588;SDS011;46421;48.610;9.334;2023-03-01T01:28:48;12.95;;;5.55;;
60588;SDS011;46421;48.610;9.334;2023-03-01T01:31:14;17.80;;;5.55;;
60588;SDS011;46421;48.610;9.334;2023-03-01T01:33:40;10.93;;;5.00;;
60588;SDS011;46421;48.610;9.334;2023-03-01T01:36:06;16.90;;;5.18;;
60588;SDS011;46421;48.610;9.334;2023-03-01T01:38:33;12.68;;;5.75;;
60588;SDS011;46421;48.610;9.334;2023-03-01T01:40:58;10.35;;;4.22;;
60588;SDS011;46421;48.610;9.334;2023-03-01T01:43:28;10.88;;;4.03;;
60588;SDS011;46421;48.610;9.334;2023-03-01T01:46:01;12.43;;;4.50;;
60588;SDS011;46421;48.610;9.334;2023-03-01T01:48:52;16.27;;;5.90;;
60588;SDS011;46421;48.610;9.334;2023-03-01T01:51:25;14.32;;;5.15;;
60588;SDS011;46421;48.610;9.334;2023-03-01T01:54:03;11.85;;;4.65;;
60588;SDS011;46421;48.610;9.334;2023-03-01T01:56:52;13.25;;;5.32;;
60588;SDS011;46421;48.610;9.334;2023-03-01T01:59:23;12.07;;;5.15;;
60588;SDS011;46421;48.610;9.334;2023-03-01T02:01:53;12.40;;;4.70;;
60588;SDS011;46421;48.610;9.334;2023-03-01T02:04:19;16.05;;;5.43;;
60588;SDS011;46421;48.610;9.334;2023-03-01T02:06:49;16.85;;;5.35;;
60588;SDS011;46421;48.610;9.334;2023-03-01T02:09:20;14.57;;;5.78;;
60588;SDS011;46421;48.610;9.334;2023-03-01T02:11:48;13.55;;;5.93;;
60588;SDS011;46421;48.610;9.334;2023-03-01T02:16:41;12.52;;;4.72;;
60588;SDS011;46421;48.610;9.334;2023-03-01T02:19:07;11.95;;;5.20;;
60588;SDS011;46421;48.610;9.334;2023-03-01T02:21:48;12.57;;;5.10;;
60588;SDS011;46421;48.610;9.334;2023-03-01T02:27:00;9.23;;;4.75;;
60588;SDS011;46421;48.610;9.334;2023-03-01T02:29:26;15.40;;;5.28;;
60588;SDS011;46421;48.610;9.334;2023-03-01T02:31:53;10.93;;;5.20;;
60588;SDS011;46421;48.610;9.334;2023-03-01T02:34:22;12.43;;;4.93;;
60588;SDS011;46421;48.610;9.334;2023-03-01T02:36:54;13.45;;;5.45;;
60588;SDS011;46421;48.610;9.334;2023-03-01T02:39:26;15.05;;;6.20;;
60588;SDS011;46421;48.610;9.334;2023-03-01T02:41:56;12.80;;;5.30;;
60588;SDS011;46421;48.610;9.334;2023-03-01T02:44:24;13.77;;;5.32;;
60588;SDS011;46421;48.610;9.334;2023-03-01T02:46:51;12.52;;;5.28;;
60588;SDS011;46421;48.610;9.334;2023-03-01T02:49:28;10.80;;;4.65;;
60588;SDS011;46421;48.610;9.334;2023-03-01T02:57:28;13.93;;;5.45;;
60588;SDS011;46421;48.610;9.334;2023-03-01T02:59:55;10.77;;;5.25;;
60588;SDS011;46421;48.610;9.334;2023-03-01T03:02:24;17.20;;;6.00;;
60588;SDS011;46421;48.610;9.334;2023-03-01T03:07:31;13.98;;;5.35;;
60588;SDS011;46421;48.610;9.334;2023-03-01T03:09:58;12.93;;;5.03;;
60588;SDS011;46421;48.610;9.334;2023-03-01T03:12:23;14.27;;;5.25;;
60588;SDS011;46421;48.610;9.334;2023-03-01T03:14:49;15.90;;;6.17;;
60588;SDS011;46421;48.610;9.334;2023-03-01T03:17:14;14.17;;;5.70;;
60588;SDS011;46421;48.610;9.334;2023-03-01T03:19:39;14.57;;;5.63;;
60588;SDS011;46421;48.610;9.334;2023-03-01T03:22:05;12.07;;;4.63;;
60588;SDS011;46421;48.610;9.334;2023-03-01T03:24:30;14.88;;;5.32;;
60588;SDS011;46421;48.610;9.334;2023-03-01T03:27:02;13.82;;;5.55;;
60588;SDS011;46421;48.610;9.334;2023-03-01T03:29:31;15.60;;;5.80;;
60588;SDS011;46421;48.610;9.334;2023-03-01T03:31:56;11.85;;;4.88;;
60588;SDS011;46421;48.610;9.334;2023-03-01T03:34:22;12.52;;;5.40;;
60588;SDS011;46421;48.610;9.334;2023-03-01T03:36:48;19.25;;;5.85;;
60588;SDS011;46421;48.610;9.334;2023-03-01T03:39:21;15.50;;;5.45;;
60588;SDS011;46421;48.610;9.334;2023-03-01T03:41:48;14.55;;;5.68;;
60588;SDS011;46421;48.610;9.334;2023-03-01T03:44:13;15.73;;;5.10;;
60588;SDS011;46421;48.610;9.334;2023-03-01T03:46:38;15.30;;;4.97;;
60588;SDS011;46421;48.610;9.334;2023-03-01T03:49:04;11.97;;;5.03;;
60588;SDS011;46421;48.610;9.334;2023-03-01T03:51:29;12.87;;;5.77;;
60588;SDS011;46421;48.610;9.334;2023-03-01T03:53:54;13.13;;;5.20;;
60588;SDS011;46421;48.610;9.334;2023-03-01T03:56:20;14.90;;;5.93;;
60588;SDS011;46421;48.610;9.334;2023-03-01T03:58:45;13.27;;;6.20;;
60588;SDS011;46421;48.610;9.334;2023-03-01T04:01:10;14.90;;;6.23;;
60588;SDS011;46421;48.610;9.334;2023-03-01T04:03:36;15.07;;;6.78;;
60588;SDS011;46421;48.610;9.334;2023-03-01T04:06:01;12.73;;;5.50;;
60588;SDS011;46421;48.610;9.334;2023-03-01T04:08:28;13.45;;;5.35;;
60588;SDS011;46421;48.610;9.334;2023-03-01T04:10:57;18.00;;;6.07;;
60588;SDS011;46421;48.610;9.334;2023-03-01T04:13:25;13.43;;;4.88;;
60588;SDS011;46421;48.610;9.334;2023-03-01T04:15:52;19.17;;;5.55;;
60588;SDS011;46421;48.610;9.334;2023-03-01T04:18:18;17.20;;;5.95;;
60588;SDS011;46421;48.610;9.334;2023-03-01T04:23:12;13.00;;;5.47;;
60588;SDS011;46421;48.610;9.334;2023-03-01T04:28:21;13.27;;;5.53;;
60588;SDS011;46421;48.610;9.334;2023-03-01T04:30:53;14.98;;;5.20;;
60588;SDS011;46421;48.610;9.334;2023-03-01T04:33:19;15.45;;;5.13;;
60588;SDS011;46421;48.610;9.334;2023-03-01T04:35:45;13.93;;;5.65;;
60588;SDS011;46421;48.610;9.334;2023-03-01T04:38:14;12.40;;;5.28;;
60588;SDS011;46421;48.610;9.334;2023-03-01T04:40:40;14.38;;;5.75;;
60588;SDS011;46421;48.610;9.334;2023-03-01T04:43:08;14.20;;;6.05;;
60588;SDS011;46421;48.610;9.334;2023-03-01T04:48:00;11.57;;;5.50;;
60588;SDS011;46421;48.610;9.334;2023-03-01T04:50:25;13.52;;;5.82;;
60588;SDS011;46421;48.610;9.334;2023-03-01T04:52:51;12.93;;;5.30;;
60588;SDS011;46421;48.610;9.334;2023-03-01T04:55:16;15.00;;;6.28;;
60588;SDS011;46421;48.610;9.334;2023-03-01T04:57:43;11.45;;;5.40;;
60588;SDS011;46421;48.610;9.334;2023-03-01T05:00:10;16.65;;;5.78;;
60588;SDS011;46421;48.610;9.334;2023-03-01T05:02:47;12.65;;;5.35;;
60588;SDS011;46421;48.610;9.334;2023-03-01T05:05:14;15.07;;;5.60;;
60588;SDS011;46421;48.610;9.334;2023-03-01T05:07:40;13.43;;;5.53;;
60588;SDS011;46421;48.610;9.334;2023-03-01T05:10:06;15.25;;;5.85;;
60588;SDS011;46421;48.610;9.334;2023-03-01T05:12:31;15.27;;;5.68;;
60588;SDS011;46421;48.610;9.334;2023-03-01T05:14:56;16.50;;;6.60;;
60588;SDS011;46421;48.610;9.334;2023-03-01T05:17:23;13.02;;;5.63;;
60588;SDS011;46421;48.610;9.334;2023-03-01T05:19:49;15.35;;;6.10;;
60588;SDS011;46421;48.610;9.334;2023-03-01T05:22:14;14.20;;;5.77;;
60588;SDS011;46421;48.610;9.334;2023-03-01T05:24:39;13.80;;;6.10;;
60588;SDS011;46421;48.610;9.334;2023-03-01T05:27:05;13.43;;;6.53;;
60588;SDS011;46421;48.610;9.334;2023-03-01T05:29:31;18.33;;;6.45;;
60588;SDS011;46421;48.610;9.334;2023-03-01T05:32:00;15.57;;;6.40;;
60588;SDS011;46421;48.610;9.334;2023-03-01T05:34:31;13.43;;;5.57;;
60588;SDS011;46421;48.610;9.334;2023-03-01T05:36:58;12.80;;;5.65;;
60588;SDS011;46421;48.610;9.334;2023-03-01T05:39:25;13.65;;;6.53;;
60588;SDS011;46421;48.610;9.334;2023-03-01T05:41:51;11.65;;;5.43;;
60588;SDS011;46421;48.610;9.334;2023-03-01T05:44:18;16.70;;;6.32;;
60588;SDS011;46421;48.610;9.334;2023-03-01T05:46:43;16.27;;;6.72;;
60588;SDS011;46421;48.610;9.334;2023-03-01T05:49:10;16.85;;;6.10;;
60588;SDS011;46421;48.610;9.334;2023-03-01T05:51:35;15.10;;;6.43;;
60588;SDS011;46421;48.610;9.334;2023-03-01T05:54:01;14.57;;;5.60;;
60588;SDS011;46421;48.610;9.334;2023-03-01T05:56:26;13.10;;;6.20;;
60588;SDS011;46421;48.610;9.334;2023-03-01T05:58:51;19.27;;;6.70;;
60588;SDS011;46421;48.610;9.334;2023-03-01T06:01:17;15.33;;;6.20;;
60588;SDS011;46421;48.610;9.334;2023-03-01T06:03:42;17.13;;;6.57;;
60588;SDS011;46421;48.610;9.334;2023-03-01T06:06:07;14.87;;;6.70;;
60588;SDS011;46421;48.610;9.334;2023-03-01T06:08:33;15.40;;;5.47;;
60588;SDS011;46421;48.610;9.334;2023-03-01T06:10:58;16.02;;;6.13;;
60588;SDS011;46421;48.610;9.334;2023-03-01T06:13:24;16.63;;;7.20;;
60588;SDS011;46421;48.610;9.334;2023-03-01T06:15:49;15.50;;;6.43;;
60588;SDS011;46421;48.610;9.334;2023-03-01T06:18:15;13.98;;;5.65;;
60588;SDS011;46421;48.610;9.334;2023-03-01T06:20:40;17.95;;;5.63;;
60588;SDS011;46421;48.610;9.334;2023-03-01T06:23:05;18.03;;;6.70;;
60588;SDS011;46421;48.610;9.334;2023-03-01T06:25:31;18.53;;;7.23;;
60588;SDS011;46421;48.610;9.334;2023-03-01T06:27:57;18.17;;;6.40;;
60588;SDS011;46421;48.610;9.334;2023-03-01T06:30:23;15.40;;;6.30;;
60588;SDS011;46421;48.610;9.334;2023-03-01T06:32:50;15.90;;;5.88;;
60588;SDS011;46421;48.610;9.334;2023-03-01T06:35:16;15.77;;;5.97;;
60588;SDS011;46421;48.610;9.334;2023-03-01T06:37:43;16.55;;;6.13;;
60588;SDS011;46421;48.610;9.334;2023-03-01T06:40:09;18.63;;;5.60;;
60588;SDS011;46421;48.610;9.334;2023-03-01T06:42:36;18.75;;;7.00;;
60588;SDS011;46421;48.610;9.334;2023-03-01T06:45:03;13.90;;;6.18;;
60588;SDS011;46421;48.610;9.334;2023-03-01T06:49:55;16.13;;;6.28;;
60588;SDS011;46421;48.610;9.334;2023-03-01T06:52:21;17.58;;;6.97;;
60588;SDS011;46421;48.610;9.334;2023-03-01T06:54:46;18.38;;;5.93;;
60588;SDS011;46421;48.610;9.334;2023-03-01T06:57:12;15.67;;;6.33;;
60588;SDS011;46421;48.610;9.334;2023-03-01T06:59:37;18.30;;;6.67;;
60588;SDS011;46421;48.610;9.334;2023-03-01T07:02:02;17.13;;;6.97;;
60588;SDS011;46421;48.610;9.334;2023-03-01T07:04:28;15.77;;;6.27;;
60588;SDS011;46421;48.610;9.334;2023-03-01T07:06:56;21.25;;;6.95;;
60588;SDS011;46421;48.610;9.334;2023-03-01T07:09:22;16.25;;;7.00;;
60588;SDS011;46421;48.610;9.334;2023-03-01T07:11:48;13.60;;;6.70;;
60588;SDS011;46421;48.610;9.334;2023-03-01T07:14:14;16.60;;;7.32;;
60588;SDS011;46421;48.610;9.334;2023-03-01T07:16:39;15.23;;;7.13;;
60588;SDS011;46421;48.610;9.334;2023-03-01T07:19:05;18.00;;;7.50;;
60588;SDS011;46421;48.610;9.334;2023-03-01T07:21:30;14.43;;;6.60;;
60588;SDS011;46421;48.610;9.334;2023-03-01T07:23:56;13.55;;;6.75;;
60588;SDS011;46421;48.610;9.334;2023-03-01T07:26:22;17.92;;;7.55;;
60588;SDS011;46421;48.610;9.334;2023-03-01T07:28:47;14.77;;;6.75;;
60588;SDS011;46421;48.610;9.334;2023-03-01T07:31:13;15.63;;;7.28;;
60588;SDS011;46421;48.610;9.334;2023-03-01T07:33:38;16.42;;;7.95;;
60588;SDS011;46421;48.610;9.334;2023-03-01T07:36:04;15.70;;;7.00;;
60588;SDS011;46421;48.610;9.334;2023-03-01T07:38:30;18.00;;;7.95;;
60588;SDS011;46421;48.610;9.334;2023-03-01T07:41:02;18.17;;;7.33;;
60588;SDS011;46421;48.610;9.334;2023-03-01T07:43:28;15.30;;;7.25;;
60588;SDS011;46421;48.610;9.334;2023-03-01T07:45:57;17.17;;;7.13;;
60588;SDS011;46421;48.610;9.334;2023-03-01T07:48:23;16.10;;;7.57;;
60588;SDS011;46421;48.610;9.334;2023-03-01T07:50:48;17.60;;;7.70;;
60588;SDS011;46421;48.610;9.334;2023-03-01T07:53:14;19.87;;;7.80;;
60588;SDS011;46421;48.610;9.334;2023-03-01T07:55:39;18.17;;;7.93;;
60588;SDS011;46421;48.610;9.334;2023-03-01T07:58:04;15.67;;;7.67;;
60588;SDS011;46421;48.610;9.334;2023-03-01T08:00:30;17.63;;;7.90;;
60588;SDS011;46421;48.610;9.334;2023-03-01T08:02:58;16.83;;;7.07;;
60588;SDS011;46421;48.610;9.334;2023-03-01T08:05:25;16.38;;;6.93;;
60588;SDS011;46421;48.610;9.334;2023-03-01T08:07:50;15.20;;;7.83;;
60588;SDS011;46421;48.610;9.334;2023-03-01T08:10:16;14.37;;;7.67;;
60588;SDS011;46421;48.610;9.334;2023-03-01T08:12:41;17.70;;;7.20;;
60588;SDS011;46421;48.610;9.334;2023-03-01T08:15:07;18.30;;;8.07;;
60588;SDS011;46421;48.610;9.334;2023-03-01T08:17:33;17.10;;;7.95;;
60588;SDS011;46421;48.610;9.334;2023-03-01T08:19:58;17.58;;;7.82;;
60588;SDS011;46421;48.610;9.334;2023-03-01T08:22:23;17.57;;;8.23;;
60588;SDS011;46421;48.610;9.334;2023-03-01T08:24:49;15.13;;;7.70;;
60588;SDS011;46421;48.610;9.334;2023-03-01T08:27:15;17.30;;;8.30;;
60588;SDS011;46421;48.610;9.334;2023-03-01T08:29:41;14.23;;;7.65;;
60588;SDS011;46421;48.610;9.334;2023-03-01T08:32:06;18.17;;;7.60;;
60588;SDS011;46421;48.610;9.334;2023-03-01T08:34:31;17.17;;;7.93;;
60588;SDS011;46421;48.610;9.334;2023-03-01T08:36:57;16.73;;;9.27;;
60588;SDS011;46421;48.610;9.334;2023-03-01T08:39:22;16.38;;;8.05;;
60588;SDS011;46421;48.610;9.334;2023-03-01T08:41:48;17.02;;;7.85;;
60588;SDS011;46421;48.610;9.334;2023-03-01T08:44:14;14.05;;;7.28;;
60588;SDS011;46421;48.610;9.334;2023-03-01T08:46:41;16.20;;;8.75;;
60588;SDS011;46421;48.610;9.334;2023-03-01T08:49:11;17.77;;;8.07;;
60588;SDS011;46421;48.610;9.334;2023-03-01T08:51:39;15.82;;;6.80;;
60588;SDS011;46421;48.610;9.334;2023-03-01T08:54:11;16.83;;;7.60;;
60588;SDS011;46421;48.610;9.334;2023-03-01T08:56:39;17.75;;;7.88;;
60588;SDS011;46421;48.610;9.334;2023-03-01T08:59:05;21.40;;;9.55;;
60588;SDS011;46421;48.610;9.334;2023-03-01T09:01:31;19.70;;;9.05;;
60588;SDS011;46421;48.610;9.334;2023-03-01T09:03:56;16.77;;;9.27;;
60588;SDS011;46421;48.610;9.334;2023-03-01T09:06:22;16.52;;;8.45;;
60588;SDS011;46421;48.610;9.334;2023-03-01T09:08:50;19.75;;;9.43;;
60588;SDS011;46421;48.610;9.334;2023-03-01T09:11:17;15.77;;;8.60;;
60588;SDS011;46421;48.610;9.334;2023-03-01T09:13:45;16.75;;;8.48;;
60588;SDS011;46421;48.610;9.334;2023-03-01T09:16:12;18.20;;;8.20;;
60588;SDS011;46421;48.610;9.334;2023-03-01T09:18:39;18.40;;;8.23;;
60588;SDS011;46421;48.610;9.334;2023-03-01T09:21:12;17.95;;;8.90;;
60588;SDS011;46421;48.610;9.334;2023-03-01T09:23:40;16.77;;;8.48;;
60588;SDS011;46421;48.610;9.334;2023-03-01T09:26:12;17.60;;;8.32;;
60588;SDS011;46421;48.610;9.334;2023-03-01T09:28:41;15.13;;;8.48;;
60588;SDS011;46421;48.610;9.334;2023-03-01T09:31:07;17.17;;;8.60;;
60588;SDS011;46421;48.610;9.334;2023-03-01T09:33:34;16.70;;;8.65;;
60588;SDS011;46421;48.610;9.334;2023-03-01T09:36:00;15.45;;;8.43;;
60588;SDS011;46421;48.610;9.334;2023-03-01T09:38:27;18.25;;;8.50;;
60588;SDS011;46421;48.610;9.334;2023-03-01T09:40:52;18.15;;;8.32;;
60588;SDS011;46421;48.610;9.334;2023-03-01T09:43:20;16.92;;;8.45;;
60588;SDS011;46421;48.610;9.334;2023-03-01T09:46:10;14.85;;;8.40;;
60588;SDS011;46421;48.610;9.334;2023-03-01T09:48:51;17.40;;;9.35;;
60588;SDS011;46421;48.610;9.334;2023-03-01T09:51:27;18.40;;;8.98;;
60588;SDS011;46421;48.610;9.334;2023-03-01T09:53:56;17.08;;;8.13;;
60588;SDS011;46421;48.610;9.334;2023-03-01T09:56:32;16.65;;;8.75;;
60588;SDS011;46421;48.610;9.334;2023-03-01T10:04:31;17.08;;;8.32;;
60588;SDS011;46421;48.610;9.334;2023-03-01T10:09:43;15.68;;;8.50;;
60588;SDS011;46421;48.610;9.334;2023-03-01T10:12:11;15.48;;;7.93;;
60588;SDS011;46421;48.610;9.334;2023-03-01T10:14:52;14.23;;;8.23;;
60588;SDS011;46421;48.610;9.334;2023-03-01T10:17:24;16.15;;;8.35;;
60588;SDS011;46421;48.610;9.334;2023-03-01T10:19:55;15.07;;;8.05;;
60588;SDS011;46421;48.610;9.334;2023-03-01T10:22:38;15.40;;;8.65;;
60588;SDS011;46421;48.610;9.334;2023-03-01T10:25:03;15.55;;;8.20;;
60588;SDS011;46421;48.610;9.334;2023-03-01T10:27:34;15.35;;;7.95;;
60588;SDS011;46421;48.610;9.334;2023-03-01T10:30:21;19.52;;;8.43;;
60588;SDS011;46421;48.610;9.334;2023-03-01T10:32:54;16.33;;;8.68;;
60588;SDS011;46421;48.610;9.334;2023-03-01T10:35:23;15.48;;;7.60;;
60588;SDS011;46421;48.610;9.334;2023-03-01T10:37:57;13.52;;;7.43;;
60588;SDS011;46421;48.610;9.334;2023-03-01T10:40:22;16.67;;;8.05;;
60588;SDS011;46421;48.610;9.334;2023-03-01T10:42:48;15.75;;;7.63;;
60588;SDS011;46421;48.610;9.334;2023-03-01T10:50:51;15.38;;;7.75;;
60588;SDS011;46421;48.610;9.334;2023-03-01T10:53:38;15.68;;;7.82;;
60588;SDS011;46421;48.610;9.334;2023-03-01T10:58:34;13.98;;;7.38;;
60588;SDS011;46421;48.610;9.334;2023-03-01T11:01:06;16.90;;;8.25;;
60588;SDS011;46421;48.610;9.334;2023-03-01T11:06:32;17.30;;;8.68;;
60588;SDS011;46421;48.610;9.334;2023-03-01T11:11:45;24.77;;;7.82;;
60588;SDS011;46421;48.610;9.334;2023-03-01T11:14:17;15.63;;;7.63;;
60588;SDS011;46421;48.610;9.334;2023-03-01T11:25:37;15.13;;;7.85;;
60588;SDS011;46421;48.610;9.334;2023-03-01T11:28:06;16.85;;;8.40;;
60588;SDS011;46421;48.610;9.334;2023-03-01T11:30:38;15.55;;;7.78;;
60588;SDS011;46421;48.610;9.334;2023-03-01T11:38:55;12.70;;;7.32;;
60588;SDS011;46421;48.610;9.334;2023-03-01T11:41:23;13.68;;;7.70;;
60588;SDS011;46421;48.610;9.334;2023-03-01T11:44:03;14.27;;;6.82;;
60588;SDS011;46421;48.610;9.334;2023-03-01T11:46:42;13.77;;;7.45;;
60588;SDS011;46421;48.610;9.334;2023-03-01T11:52:25;15.13;;;7.75;;
60588;SDS011;46421;48.610;9.334;2023-03-01T12:00:54;13.27;;;6.68;;
60588;SDS011;46421;48.610;9.334;2023-03-01T12:06:12;13.40;;;6.63;;
60588;SDS011;46421;48.610;9.334;2023-03-01T12:09:02;14.13;;;8.00;;
60588;SDS011;46421;48.610;9.334;2023-03-01T12:14:29;12.00;;;7.18;;
60588;SDS011;46421;48.610;9.334;2023-03-01T12:22:04;14.40;;;7.20;;
60588;SDS011;46421;48.610;9.334;2023-03-01T12:27:16;12.77;;;7.15;;
60588;SDS011;46421;48.610;9.334;2023-03-01T12:36:02;14.48;;;7.20;;
60588;SDS011;46421;48.610;9.334;2023-03-01T12:39:11;15.82;;;7.25;;
60588;SDS011;46421;48.610;9.334;2023-03-01T12:50:42;15.43;;;7.68;;
60588;SDS011;46421;48.610;9.334;2023-03-01T12:53:22;15.32;;;8.10;;
60588;SDS011;46421;48.610;9.334;2023-03-01T12:55:54;16.20;;;7.55;;
60588;SDS011;46421;48.610;9.334;2023-03-01T13:01:09;13.40;;;7.75;;
60588;SDS011;46421;48.610;9.334;2023-03-01T13:06:15;15.65;;;6.88;;
60588;SDS011;46421;48.610;9.334;2023-03-01T13:08:58;15.13;;;7.70;;
60588;SDS011;46421;48.610;9.334;2023-03-01T13:11:33;12.68;;;6.72;;
60588;SDS011;46421;48.610;9.334;2023-03-01T13:14:34;14.20;;;7.38;;
60588;SDS011;46421;48.610;9.334;2023-03-01T13:17:01;13.10;;;6.95;;
60588;SDS011;46421;48.610;9.334;2023-03-01T13:19:27;13.77;;;7.20;;
60588;SDS011;46421;48.610;9.334;2023-03-01T13:21:55;19.25;;;7.38;;
60588;SDS011;46421;48.610;9.334;2023-03-01T13:24:39;14.57;;;7.07;;
60588;SDS011;46421;48.610;9.334;2023-03-01T13:29:44;15.60;;;7.20;;
60588;SDS011;46421;48.610;9.334;2023-03-01T13:32:33;14.40;;;7.05;;
60588;SDS011;46421;48.610;9.334;2023-03-01T13:34:59;15.73;;;7.25;;
60588;SDS011;46421;48.610;9.334;2023-03-01T13:37:30;12.80;;;6.68;;
60588;SDS011;46421;48.610;9.334;2023-03-01T13:39:58;18.17;;;7.30;;
60588;SDS011;46421;48.610;9.334;2023-03-01T13:42:31;14.20;;;6.55;;
60588;SDS011;46421;48.610;9.334;2023-03-01T13:44:58;15.27;;;6.60;;
60588;SDS011;46421;48.610;9.334;2023-03-01T13:47:25;15.27;;;6.80;;
60588;SDS011;46421;48.610;9.334;2023-03-01T13:52:37;15.38;;;6.47;;
60588;SDS011;46421;48.610;9.334;2023-03-01T13:55:10;12.35;;;6.53;;
60588;SDS011;46421;48.610;9.334;2023-03-01T13:57:43;16.85;;;7.10;;
60588;SDS011;46421;48.610;9.334;2023-03-01T14:00:24;14.05;;;5.93;;
60588;SDS011;46421;48.610;9.334;2023-03-01T14:03:13;15.25;;;6.85;;
60588;SDS011;46421;48.610;9.334;2023-03-01T14:05:57;14.43;;;5.95;;
60588;SDS011;46421;48.610;9.334;2023-03-01T14:08:26;16.40;;;6.88;;
60588;SDS011;46421;48.610;9.334;2023-03-01T14:10:57;13.20;;;6.20;;
60588;SDS011;46421;48.610;9.334;2023-03-01T14:13:36;12.18;;;5.68;;
60588;SDS011;46421;48.610;9.334;2023-03-01T14:18:38;12.68;;;5.72;;
60588;SDS011;46421;48.610;9.334;2023-03-01T14:21:14;13.20;;;6.13;;
60588;SDS011;46421;48.610;9.334;2023-03-01T14:23:40;13.05;;;6.32;;
60588;SDS011;46421;48.610;9.334;2023-03-01T14:26:07;12.55;;;6.15;;
60588;SDS011;46421;48.610;9.334;2023-03-01T14:28:34;14.10;;;6.18;;
60588;SDS011;46421;48.610;9.334;2023-03-01T14:31:21;13.40;;;5.97;;
60588;SDS011;46421;48.610;9.334;2023-03-01T14:33:55;14.30;;;6.50;;
60588;SDS011;46421;48.610;9.334;2023-03-01T14:36:26;11.75;;;5.88;;
60588;SDS011;46421;48.610;9.334;2023-03-01T14:38:53;12.70;;;6.40;;
60588;SDS011;46421;48.610;9.334;2023-03-01T14:41:23;16.88;;;6.32;;
60588;SDS011;46421;48.610;9.334;2023-03-01T14:43:55;14.07;;;6.72;;
60588;SDS011;46421;48.610;9.334;2023-03-01T14:46:30;12.93;;;5.93;;
60588;SDS011;46421;48.610;9.334;2023-03-01T14:48:58;14.98;;;6.25;;
60588;SDS011;46421;48.610;9.334;2023-03-01T14:51:27;12.13;;;5.88;;
60588;SDS011;46421;48.610;9.334;2023-03-01T14:53:53;13.60;;;6.57;;
60588;SDS011;46421;48.610;9.334;2023-03-01T14:56:19;16.15;;;7.25;;
60588;SDS011;46421;48.610;9.334;2023-03-01T14:58:45;13.07;;;6.90;;
60588;SDS011;46421;48.610;9.334;2023-03-01T15:01:16;12.88;;;6.18;;
60588;SDS011;46421;48.610;9.334;2023-03-01T15:03:43;18.33;;;7.68;;
60588;SDS011;46421;48.610;9.334;2023-03-01T15:06:14;13.80;;;6.47;;
60588;SDS011;46421;48.610;9.334;2023-03-01T15:08:43;15.48;;;6.60;;
60588;SDS011;46421;48.610;9.334;2023-03-01T15:11:22;13.50;;;6.43;;
60588;SDS011;46421;48.610;9.334;2023-03-01T15:13:52;13.35;;;6.15;;
60588;SDS011;46421;48.610;9.334;2023-03-01T15:16:29;14.68;;;7.30;;
60588;SDS011;46421;48.610;9.334;2023-03-01T15:18:56;14.77;;;6.40;;
60588;SDS011;46421;48.610;9.334;2023-03-01T15:21:26;15.40;;;6.78;;
60588;SDS011;46421;48.610;9.334;2023-03-01T15:24:36;16.60;;;6.90;;
60588;SDS011;46421;48.610;9.334;2023-03-01T15:29:23;12.95;;;5.70;;
60588;SDS011;46421;48.610;9.334;2023-03-01T15:31:56;13.55;;;6.13;;
60588;SDS011;46421;48.610;9.334;2023-03-01T15:34:33;14.07;;;6.05;;
60588;SDS011;46421;48.610;9.334;2023-03-01T15:37:02;14.25;;;6.03;;
60588;SDS011;46421;48.610;9.334;2023-03-01T15:39:35;13.38;;;5.57;;
60588;SDS011;46421;48.610;9.334;2023-03-01T15:42:11;16.50;;;6.22;;
60588;SDS011;46421;48.610;9.334;2023-03-01T15:45:10;12.63;;;5.85;;
60588;SDS011;46421;48.610;9.334;2023-03-01T15:47:46;16.17;;;6.00;;
60588;SDS011;46421;48.610;9.334;2023-03-01T15:52:47;11.93;;;5.78;;
60588;SDS011;46421;48.610;9.334;2023-03-01T15:55:24;15.80;;;6.43;;
60588;SDS011;46421;48.610;9.334;2023-03-01T15:58:28;14.25;;;5.30;;
60588;SDS011;46421;48.610;9.334;2023-03-01T16:00:48;15.65;;;6.50;;
60588;SDS011;46421;48.610;9.334;2023-03-01T16:03:16;11.25;;;5.53;;
60588;SDS011;46421;48.610;9.334;2023-03-01T16:05:46;13.55;;;5.72;;
60588;SDS011;46421;48.610;9.334;2023-03-01T16:08:16;15.02;;;6.18;;
60588;SDS011;46421;48.610;9.334;2023-03-01T16:10:42;14.00;;;5.38;;
60588;SDS011;46421;48.610;9.334;2023-03-01T16:13:09;14.57;;;5.78;;
60588;SDS011;46421;48.610;9.334;2023-03-01T16:15:35;14.18;;;6.03;;
60588;SDS011;46421;48.610;9.334;2023-03-01T16:18:00;15.73;;;6.05;;
60588;SDS011;46421;48.610;9.334;2023-03-01T16:20:26;13.50;;;5.50;;
60588;SDS011;46421;48.610;9.334;2023-03-01T16:22:53;11.27;;;5.28;;
60588;SDS011;46421;48.610;9.334;2023-03-01T16:25:19;14.07;;;5.72;;
60588;SDS011;46421;48.610;9.334;2023-03-01T16:27:45;19.08;;;6.80;;
60588;SDS011;46421;48.610;9.334;2023-03-01T16:30:17;16.15;;;6.28;;
60588;SDS011;46421;48.610;9.334;2023-03-01T16:32:44;13.57;;;5.75;;
60588;SDS011;46421;48.610;9.334;2023-03-01T16:35:12;15.80;;;5.50;;
60588;SDS011;46421;48.610;9.334;2023-03-01T16:37:39;14.40;;;5.40;;
60588;SDS011;46421;48.610;9.334;2023-03-01T16:40:06;14.23;;;6.00;;
60588;SDS011;46421;48.610;9.334;2023-03-01T16:42:40;11.18;;;5.68;;